createdAt,value
2023-05-09T00:02:20.940Z,15.13
2023-05-09T00:04:48.638Z,15.07
2023-05-09T00:07:15.823Z,11.57
2023-05-09T00:09:42.957Z,16.33
2023-05-09T00:12:10.084Z,18.02
2023-05-09T00:14:37.131Z,11.25
2023-05-09T00:17:04.885Z,11.15
2023-05-09T00:19:32.405Z,20.67
2023-05-09T00:21:59.587Z,16.35
2023-05-09T00:24:26.576Z,11.32
2023-05-09T00:26:53.452Z,15.82
2023-05-09T00:29:20.501Z,12.65
2023-05-09T00:31:47.545Z,13.98
2023-05-09T00:34:14.601Z,13.45
2023-05-09T00:36:45.263Z,13.93
2023-05-09T00:39:13.351Z,14.20
2023-05-09T00:41:40.376Z,13.15
2023-05-09T00:44:07.854Z,12.82
2023-05-09T00:46:34.930Z,14.90
2023-05-09T00:49:02.325Z,11.05
2023-05-09T00:51:29.999Z,12.70
2023-05-09T00:53:57.099Z,8.82
2023-05-09T00:56:26.259Z,12.38
2023-05-09T00:58:54.087Z,14.15
2023-05-09T01:01:21.240Z,9.55
2023-05-09T01:03:48.764Z,13.10
2023-05-09T01:06:48.359Z,14.95
2023-05-09T01:09:30.662Z,16.30
2023-05-09T01:12:21.988Z,15.15
2023-05-09T01:14:55.434Z,22.45
2023-05-09T01:17:50.743Z,12.90
2023-05-09T01:20:40.014Z,13.45
2023-05-09T01:23:16.093Z,14.75
2023-05-09T01:26:04.862Z,16.70
2023-05-09T01:28:43.853Z,22.52
2023-05-09T01:31:11.275Z,8.73
2023-05-09T01:33:40.987Z,9.77
2023-05-09T01:36:15.482Z,14.82
2023-05-09T01:38:44.638Z,17.58
2023-05-09T01:41:14.388Z,10.60
2023-05-09T01:43:43.331Z,12.90
2023-05-09T01:46:19.601Z,11.77
2023-05-09T01:48:46.957Z,12.13
2023-05-09T01:51:16.577Z,8.95
2023-05-09T01:53:44.532Z,8.85
2023-05-09T01:56:13.005Z,12.90
2023-05-09T01:58:41.475Z,8.93
2023-05-09T02:01:10.079Z,11.77
2023-05-09T02:03:38.678Z,7.18
2023-05-09T02:06:06.368Z,10.85
2023-05-09T02:08:34.164Z,10.27
2023-05-09T02:11:01.059Z,11.32
2023-05-09T02:13:28.221Z,15.25
2023-05-09T02:15:55.685Z,11.07
2023-05-09T02:18:22.935Z,10.55
2023-05-09T02:20:49.925Z,13.05
2023-05-09T02:23:18.507Z,12.00
2023-05-09T02:25:46.820Z,8.77
2023-05-09T02:28:14.198Z,16.45
2023-05-09T02:30:44.442Z,11.82
2023-05-09T02:33:13.909Z,11.43
2023-05-09T02:35:44.732Z,11.18
2023-05-09T02:38:13.515Z,9.70
2023-05-09T02:40:43.591Z,7.57
2023-05-09T02:43:10.985Z,10.10
2023-05-09T02:45:38.048Z,9.38
2023-05-09T02:48:08.344Z,11.75
2023-05-09T02:50:36.034Z,9.30
2023-05-09T02:53:02.972Z,8.10
2023-05-09T02:55:29.967Z,10.00
2023-05-09T02:58:05.625Z,10.10
2023-05-09T03:00:40.517Z,9.93
2023-05-09T03:03:08.199Z,9.52
2023-05-09T03:05:35.368Z,9.27
2023-05-09T03:08:02.379Z,11.02
2023-05-09T03:10:30.050Z,18.65
2023-05-09T03:12:57.148Z,12.82
2023-05-09T03:15:24.133Z,11.63
2023-05-09T03:17:51.637Z,10.75
2023-05-09T03:20:19.361Z,12.90
2023-05-09T03:22:48.487Z,13.18
2023-05-09T03:25:17.028Z,12.35
2023-05-09T03:27:44.820Z,18.48
2023-05-09T03:30:15.040Z,13.50
2023-05-09T03:32:44.449Z,12.25
2023-05-09T03:35:11.371Z,12.02
2023-05-09T03:37:38.502Z,9.98
2023-05-09T03:40:08.084Z,11.00
2023-05-09T03:42:41.858Z,10.45
2023-05-09T03:45:09.440Z,11.82
2023-05-09T03:47:36.555Z,8.55
2023-05-09T03:50:04.358Z,12.90
2023-05-09T03:52:31.839Z,10.25
2023-05-09T03:54:59.563Z,10.85
2023-05-09T03:57:30.039Z,12.88
2023-05-09T03:59:57.785Z,15.65
2023-05-09T04:02:26.070Z,19.13
2023-05-09T04:04:53.482Z,11.18
2023-05-09T04:07:22.604Z,11.88
2023-05-09T04:09:50.403Z,13.85
2023-05-09T04:12:17.453Z,8.77
2023-05-09T04:14:48.898Z,14.63
2023-05-09T04:17:17.019Z,18.25
2023-05-09T04:19:45.339Z,10.02
2023-05-09T04:22:12.687Z,18.75
2023-05-09T04:24:40.318Z,17.70
2023-05-09T04:27:07.273Z,10.57
2023-05-09T04:29:36.482Z,14.65
2023-05-09T04:32:05.251Z,12.55
2023-05-09T04:34:32.213Z,13.75
2023-05-09T04:37:04.270Z,13.80
2023-05-09T04:39:32.405Z,12.23
2023-05-09T04:42:06.092Z,13.17
2023-05-09T04:44:33.557Z,16.98
2023-05-09T04:47:00.713Z,10.38
2023-05-09T04:49:28.432Z,11.52
2023-05-09T04:51:56.769Z,13.05
2023-05-09T04:54:23.810Z,12.05
2023-05-09T04:56:53.218Z,13.35
2023-05-09T04:59:23.607Z,13.90
2023-05-09T05:01:50.572Z,11.65
2023-05-09T05:04:18.534Z,16.63
2023-05-09T05:06:45.587Z,13.05
2023-05-09T05:09:12.784Z,9.35
2023-05-09T05:11:41.554Z,14.02
2023-05-09T05:14:12.061Z,10.77
2023-05-09T05:16:39.686Z,10.18
2023-05-09T05:19:06.660Z,12.90
2023-05-09T05:21:37.661Z,8.88
2023-05-09T05:24:05.719Z,15.68
2023-05-09T05:26:33.169Z,12.23
2023-05-09T05:29:00.964Z,14.32
2023-05-09T05:31:28.020Z,17.42
2023-05-09T05:33:55.144Z,10.13
2023-05-09T05:36:22.424Z,12.10
2023-05-09T05:38:49.464Z,20.70
2023-05-09T05:41:16.740Z,11.70
2023-05-09T05:43:44.746Z,10.40
2023-05-09T05:46:11.954Z,19.02
2023-05-09T05:48:38.946Z,8.95
2023-05-09T05:51:05.909Z,9.95
2023-05-09T05:53:33.079Z,19.63
2023-05-09T05:56:00.340Z,20.30
2023-05-09T05:58:28.148Z,11.40
2023-05-09T06:00:55.450Z,11.32
2023-05-09T06:03:22.658Z,10.80
2023-05-09T06:05:56.592Z,16.48
2023-05-09T06:08:23.810Z,15.70
2023-05-09T06:10:50.771Z,15.13
2023-05-09T06:13:17.822Z,15.13
2023-05-09T06:15:49.775Z,15.80
2023-05-09T06:18:16.763Z,19.83
2023-05-09T06:20:43.705Z,16.67
2023-05-09T06:23:10.622Z,28.38
2023-05-09T06:25:37.546Z,20.02
2023-05-09T06:28:04.650Z,18.05
2023-05-09T06:30:31.589Z,14.80
2023-05-09T06:32:59.120Z,12.43
2023-05-09T06:35:26.141Z,19.75
2023-05-09T06:37:53.092Z,15.73
2023-05-09T06:40:20.475Z,12.73
2023-05-09T06:42:47.787Z,14.02
2023-05-09T06:45:16.565Z,16.15
2023-05-09T06:47:43.789Z,19.70
2023-05-09T06:50:10.978Z,15.65
2023-05-09T06:52:37.936Z,13.80
2023-05-09T06:55:05.457Z,20.42
2023-05-09T06:57:32.588Z,13.70
2023-05-09T06:59:59.692Z,20.52
2023-05-09T07:02:27.003Z,15.60
2023-05-09T07:04:54.036Z,19.58
2023-05-09T07:07:21.014Z,21.02
2023-05-09T07:09:50.727Z,19.90
2023-05-09T07:12:20.079Z,26.85
2023-05-09T07:14:47.038Z,21.23
2023-05-09T07:17:22.723Z,18.00
2023-05-09T07:19:51.658Z,29.92
2023-05-09T07:22:18.665Z,17.75
2023-05-09T07:24:46.658Z,14.90
2023-05-09T07:27:13.931Z,17.52
2023-05-09T07:29:40.910Z,33.10
2023-05-09T07:32:08.217Z,20.63
2023-05-09T07:34:36.504Z,21.25
2023-05-09T07:37:04.233Z,22.95
2023-05-09T07:39:31.535Z,15.18
2023-05-09T07:41:58.445Z,22.15
2023-05-09T07:44:25.560Z,17.00
2023-05-09T07:46:52.705Z,21.05
2023-05-09T07:49:19.568Z,18.08
2023-05-09T07:51:46.483Z,10.85
2023-05-09T07:54:13.740Z,19.48
2023-05-09T07:56:40.658Z,16.95
2023-05-09T07:59:07.658Z,20.13
2023-05-09T08:01:34.768Z,16.70
2023-05-09T08:04:01.981Z,15.20
2023-05-09T08:06:29.130Z,14.13
2023-05-09T08:08:56.150Z,22.77
2023-05-09T08:11:23.642Z,25.70
2023-05-09T08:13:50.623Z,18.13
2023-05-09T08:16:17.684Z,23.30
2023-05-09T08:18:45.072Z,13.07
2023-05-09T08:21:12.253Z,22.08
2023-05-09T08:23:40.720Z,18.90
2023-05-09T08:26:07.669Z,10.43
2023-05-09T08:28:34.729Z,7.57
2023-05-09T08:31:01.965Z,6.30
2023-05-09T08:33:29.070Z,12.40
2023-05-09T08:35:56.541Z,8.57
2023-05-09T08:38:24.507Z,13.48
2023-05-09T08:40:51.736Z,19.52
2023-05-09T08:43:21.337Z,13.23
2023-05-09T08:45:54.529Z,14.02
2023-05-09T08:48:22.850Z,13.88
2023-05-09T08:50:50.245Z,21.75
2023-05-09T08:53:17.556Z,13.32
2023-05-09T08:55:44.924Z,11.02
2023-05-09T08:58:13.634Z,10.38
2023-05-09T09:00:41.766Z,19.73
2023-05-09T09:03:09.046Z,12.23
2023-05-09T09:05:42.062Z,19.67
2023-05-09T09:08:11.055Z,15.48
2023-05-09T09:10:42.786Z,20.67
2023-05-09T09:13:12.789Z,25.23
2023-05-09T09:15:43.535Z,31.98
2023-05-09T09:18:13.221Z,23.60
2023-05-09T09:20:57.030Z,22.58
2023-05-09T09:23:26.548Z,16.75
2023-05-09T09:26:02.105Z,21.88
2023-05-09T09:28:29.689Z,17.50
2023-05-09T09:30:56.974Z,13.90
2023-05-09T09:33:26.526Z,14.35
2023-05-09T09:35:56.237Z,7.25
2023-05-09T09:38:24.994Z,6.53
2023-05-09T09:40:52.010Z,9.63
2023-05-09T09:43:19.679Z,12.38
2023-05-09T09:45:52.921Z,9.43
2023-05-09T09:48:25.219Z,10.13
2023-05-09T09:50:54.979Z,12.85
2023-05-09T09:53:22.091Z,12.65
2023-05-09T09:55:52.265Z,20.98
2023-05-09T09:58:25.238Z,21.15
2023-05-09T10:01:14.229Z,7.28
2023-05-09T10:03:43.297Z,13.15
2023-05-09T10:06:16.214Z,12.40
2023-05-09T10:08:49.398Z,14.98
2023-05-09T10:11:16.724Z,9.75
2023-05-09T10:13:45.533Z,7.47
2023-05-09T10:16:13.940Z,14.60
2023-05-09T10:18:43.035Z,15.82
2023-05-09T10:21:14.170Z,13.27
2023-05-09T10:23:46.528Z,10.45
2023-05-09T10:26:29.202Z,17.92
2023-05-09T10:28:58.190Z,8.38
2023-05-09T10:31:29.504Z,7.65
2023-05-09T10:33:57.290Z,2.67
2023-05-09T10:36:25.101Z,6.72
2023-05-09T10:38:54.816Z,5.40
2023-05-09T10:41:22.471Z,14.40
2023-05-09T10:43:50.388Z,12.43
2023-05-09T10:46:18.167Z,11.43
2023-05-09T10:48:46.863Z,6.20
2023-05-09T10:51:14.601Z,8.77
2023-05-09T10:53:50.174Z,14.18
2023-05-09T10:56:31.957Z,9.88
2023-05-09T10:59:00.969Z,13.52
2023-05-09T11:01:39.629Z,7.63
2023-05-09T11:04:12.025Z,18.00
2023-05-09T11:06:44.877Z,13.15
2023-05-09T11:09:33.311Z,6.78
2023-05-09T11:12:06.480Z,6.13
2023-05-09T11:14:37.386Z,6.72
2023-05-09T11:17:07.832Z,16.75
2023-05-09T11:19:58.345Z,11.63
2023-05-09T11:22:32.710Z,6.32
2023-05-09T11:25:10.735Z,13.73
2023-05-09T11:27:49.773Z,7.82
2023-05-09T11:30:20.755Z,7.22
2023-05-09T11:32:55.360Z,10.73
2023-05-09T11:35:23.725Z,11.20
2023-05-09T11:38:00.597Z,10.07
2023-05-09T11:40:28.861Z,8.25
2023-05-09T11:42:58.353Z,19.35
2023-05-09T11:45:28.446Z,8.43
2023-05-09T11:47:57.150Z,5.13
2023-05-09T11:50:25.446Z,6.68
2023-05-09T11:52:54.141Z,10.00
2023-05-09T11:55:23.050Z,9.88
2023-05-09T11:57:54.630Z,12.05
2023-05-09T12:00:24.099Z,9.13
2023-05-09T12:02:51.907Z,6.65
2023-05-09T12:05:21.470Z,13.98
2023-05-09T12:07:49.153Z,6.97
2023-05-09T12:10:19.627Z,8.57
2023-05-09T12:12:48.878Z,7.40
2023-05-09T12:15:17.374Z,8.02
2023-05-09T12:17:47.411Z,7.20
2023-05-09T12:20:16.329Z,12.68
2023-05-09T12:22:44.157Z,7.38
2023-05-09T12:25:12.633Z,8.80
2023-05-09T12:27:41.444Z,17.08
2023-05-09T12:30:14.259Z,11.20
2023-05-09T12:32:42.971Z,8.25
2023-05-09T12:35:10.982Z,8.55
2023-05-09T12:37:39.527Z,9.00
2023-05-09T12:40:15.612Z,10.27
2023-05-09T12:42:46.370Z,9.48
2023-05-09T12:45:14.671Z,7.60
2023-05-09T12:47:42.209Z,8.80
2023-05-09T12:50:14.368Z,6.30
2023-05-09T12:53:01.295Z,4.40
2023-05-09T12:55:31.974Z,9.93
2023-05-09T12:58:01.973Z,10.82
2023-05-09T13:00:41.423Z,6.80
2023-05-09T13:03:25.301Z,10.80
2023-05-09T13:05:56.929Z,9.60
2023-05-09T13:08:24.568Z,6.63
2023-05-09T13:10:57.752Z,9.65
2023-05-09T13:13:31.850Z,12.50
2023-05-09T13:15:58.966Z,9.02
2023-05-09T13:18:26.126Z,10.40
2023-05-09T13:20:53.142Z,7.65
2023-05-09T13:23:20.274Z,12.75
2023-05-09T13:25:47.385Z,7.40
2023-05-09T13:28:15.392Z,12.23
2023-05-09T13:30:42.442Z,8.85
2023-05-09T13:33:24.475Z,6.45
2023-05-09T13:35:52.692Z,5.63
2023-05-09T13:38:19.690Z,6.18
2023-05-09T13:40:47.164Z,5.43
2023-05-09T13:43:19.719Z,8.25
2023-05-09T13:45:47.101Z,8.00
2023-05-09T13:48:14.097Z,3.90
2023-05-09T13:50:41.810Z,8.25
2023-05-09T13:53:11.935Z,9.98
2023-05-09T13:55:39.193Z,10.18
2023-05-09T13:58:06.650Z,7.00
2023-05-09T14:00:37.305Z,5.85
2023-05-09T14:03:04.463Z,12.65
2023-05-09T14:05:32.437Z,16.45
2023-05-09T14:07:59.757Z,5.65
2023-05-09T14:10:27.471Z,10.82
2023-05-09T14:12:54.791Z,9.07
2023-05-09T14:15:21.751Z,7.70
2023-05-09T14:17:51.974Z,9.15
2023-05-09T14:20:18.977Z,6.38
2023-05-09T14:22:46.653Z,13.13
2023-05-09T14:25:13.828Z,7.57
2023-05-09T14:27:40.847Z,11.20
2023-05-09T14:30:08.867Z,7.53
2023-05-09T14:32:36.478Z,14.55
2023-05-09T14:35:04.003Z,6.53
2023-05-09T14:37:31.963Z,11.70
2023-05-09T14:40:05.565Z,7.82
2023-05-09T14:42:33.064Z,3.45
2023-05-09T14:45:00.230Z,5.18
2023-05-09T14:47:27.369Z,11.02
2023-05-09T14:49:54.665Z,9.75
2023-05-09T14:52:21.891Z,5.70
2023-05-09T14:54:49.188Z,10.75
2023-05-09T14:57:16.350Z,8.38
2023-05-09T14:59:43.310Z,11.23
2023-05-09T15:02:10.261Z,7.68
2023-05-09T15:04:37.808Z,8.48
2023-05-09T15:07:06.168Z,5.78
2023-05-09T15:09:33.165Z,11.57
2023-05-09T15:12:00.207Z,14.55
2023-05-09T15:14:27.403Z,4.65
2023-05-09T15:16:55.666Z,7.75
2023-05-09T15:19:23.646Z,6.60
2023-05-09T15:21:50.736Z,9.98
2023-05-09T15:24:17.695Z,11.10
2023-05-09T15:26:44.791Z,7.60
2023-05-09T15:29:11.797Z,12.68
2023-05-09T15:31:38.904Z,11.27
2023-05-09T15:34:05.919Z,5.78
2023-05-09T15:36:34.162Z,10.73
2023-05-09T15:39:01.405Z,7.38
2023-05-09T15:41:29.248Z,3.88
2023-05-09T15:43:59.617Z,7.35
2023-05-09T15:46:30.042Z,10.20
2023-05-09T15:48:58.496Z,7.80
2023-05-09T15:51:25.886Z,6.05
2023-05-09T15:53:53.012Z,3.85
2023-05-09T15:56:20.425Z,13.93
2023-05-09T15:58:48.109Z,7.03
2023-05-09T16:01:15.198Z,14.18
2023-05-09T16:03:43.483Z,12.80
2023-05-09T16:06:13.765Z,12.73
2023-05-09T16:08:41.782Z,10.43
2023-05-09T16:11:10.374Z,9.23
2023-05-09T16:13:38.630Z,13.55
2023-05-09T16:16:06.415Z,10.93
2023-05-09T16:18:33.506Z,10.75
2023-05-09T16:21:00.862Z,10.48
2023-05-09T16:23:27.823Z,9.40
2023-05-09T16:25:55.174Z,11.90
2023-05-09T16:28:28.161Z,14.48
2023-05-09T16:30:55.349Z,11.73
2023-05-09T16:33:22.475Z,11.20
2023-05-09T16:35:49.565Z,10.27
2023-05-09T16:38:16.473Z,11.50
2023-05-09T16:40:43.485Z,15.25
2023-05-09T16:43:10.692Z,12.10
2023-05-09T16:45:37.699Z,9.18
2023-05-09T16:48:05.051Z,10.25
2023-05-09T16:50:32.225Z,18.27
2023-05-09T16:52:59.517Z,12.80
2023-05-09T16:55:26.897Z,12.77
2023-05-09T16:57:53.905Z,13.23
2023-05-09T17:00:21.973Z,12.25
2023-05-09T17:02:48.940Z,9.43
2023-05-09T17:05:15.949Z,12.60
2023-05-09T17:07:42.863Z,15.15
2023-05-09T17:10:10.650Z,13.65
2023-05-09T17:12:39.912Z,12.27
2023-05-09T17:15:08.672Z,17.13
2023-05-09T17:17:36.060Z,13.30
2023-05-09T17:20:04.479Z,13.40
2023-05-09T17:22:31.581Z,11.75
2023-05-09T17:24:58.553Z,13.95
2023-05-09T17:27:27.186Z,14.20
2023-05-09T17:29:54.131Z,19.58
2023-05-09T17:32:21.367Z,15.13
2023-05-09T17:34:48.413Z,12.70
2023-05-09T17:37:15.468Z,20.08
2023-05-09T17:39:42.722Z,14.88
2023-05-09T17:42:10.653Z,17.65
2023-05-09T17:44:39.082Z,13.05
2023-05-09T17:47:06.586Z,10.55
2023-05-09T17:49:33.740Z,11.98
2023-05-09T17:52:01.458Z,13.93
2023-05-09T17:54:29.325Z,18.25
2023-05-09T17:56:59.277Z,15.48
2023-05-09T17:59:26.273Z,19.00
2023-05-09T18:01:54.822Z,14.65
2023-05-09T18:04:21.964Z,15.10
2023-05-09T18:06:50.057Z,14.52
2023-05-09T18:09:17.618Z,14.77
2023-05-09T18:11:44.700Z,15.68
2023-05-09T18:14:12.994Z,11.30
2023-05-09T18:16:40.215Z,14.30
2023-05-09T18:19:07.286Z,13.85
2023-05-09T18:21:34.541Z,17.45
2023-05-09T18:24:01.542Z,11.55
2023-05-09T18:26:31.361Z,11.43
2023-05-09T18:28:58.397Z,12.55
2023-05-09T18:31:25.372Z,12.90
2023-05-09T18:33:52.679Z,8.60
2023-05-09T18:36:30.139Z,11.02
2023-05-09T18:38:57.147Z,6.60
2023-05-09T18:41:25.009Z,6.38
2023-05-09T18:43:52.819Z,8.60
2023-05-09T18:46:22.630Z,6.53
2023-05-09T18:48:53.014Z,5.47
2023-05-09T18:51:20.883Z,4.53
2023-05-09T18:53:47.940Z,5.93
2023-05-09T18:56:15.027Z,4.30
2023-05-09T18:58:41.897Z,4.88
2023-05-09T19:01:11.617Z,5.45
2023-05-09T19:03:46.043Z,7.80
2023-05-09T19:06:14.097Z,5.45
2023-05-09T19:08:42.475Z,7.45
2023-05-09T19:11:11.769Z,5.10
2023-05-09T19:13:40.853Z,7.70
2023-05-09T19:16:08.952Z,4.03
2023-05-09T19:18:36.021Z,10.88
2023-05-09T19:21:03.309Z,4.00
2023-05-09T19:23:40.582Z,3.28
2023-05-09T19:26:11.607Z,6.68
2023-05-09T19:28:38.725Z,4.80
2023-05-09T19:31:05.989Z,8.98
2023-05-09T19:33:34.042Z,4.57
2023-05-09T19:36:01.835Z,7.15
2023-05-09T19:38:29.734Z,6.63
2023-05-09T19:40:57.882Z,5.03
2023-05-09T19:43:25.510Z,5.95
2023-05-09T19:45:53.053Z,7.43
2023-05-09T19:48:20.468Z,2.28
2023-05-09T19:50:47.537Z,8.55
2023-05-09T19:53:15.267Z,6.20
2023-05-09T19:55:46.811Z,5.63
2023-05-09T19:58:17.658Z,5.93
2023-05-09T20:00:45.519Z,5.30
2023-05-09T20:03:12.850Z,4.07
2023-05-09T20:08:25.695Z,10.65
2023-05-09T20:10:53.125Z,5.03
2023-05-09T20:13:20.552Z,6.15
2023-05-09T20:15:50.383Z,6.05
2023-05-09T20:18:19.954Z,7.32
2023-05-09T20:20:50.085Z,4.28
2023-05-09T20:23:18.122Z,6.25
2023-05-09T20:25:44.916Z,5.18
2023-05-09T20:28:12.402Z,5.40
2023-05-09T20:30:43.480Z,4.78
2023-05-09T20:33:10.397Z,4.57
2023-05-09T20:35:39.194Z,4.40
2023-05-09T20:38:06.236Z,4.10
2023-05-09T20:40:33.344Z,4.25
2023-05-09T20:43:00.235Z,4.90
2023-05-09T20:45:29.789Z,3.58
2023-05-09T20:47:56.882Z,2.60
2023-05-09T20:50:23.893Z,2.85
2023-05-09T20:52:50.827Z,6.68
2023-05-09T20:55:17.791Z,4.05
2023-05-09T20:57:47.128Z,5.68
2023-05-09T21:00:14.479Z,5.25
2023-05-09T21:02:43.387Z,4.38
2023-05-09T21:05:10.495Z,5.18
2023-05-09T21:07:37.384Z,4.25
2023-05-09T21:10:04.571Z,5.90
2023-05-09T21:12:32.854Z,3.92
2023-05-09T21:14:59.877Z,3.05
2023-05-09T21:17:26.756Z,5.00
2023-05-09T21:19:53.669Z,3.75
2023-05-09T21:22:20.655Z,2.67
2023-05-09T21:24:47.551Z,3.90
2023-05-09T21:27:14.552Z,4.65
2023-05-09T21:29:41.486Z,4.53
2023-05-09T21:32:08.370Z,7.40
2023-05-09T21:34:35.893Z,5.82
2023-05-09T21:37:02.795Z,3.97
2023-05-09T21:39:29.874Z,4.50
2023-05-09T21:41:58.121Z,3.13
2023-05-09T21:44:25.315Z,6.15
2023-05-09T21:46:52.225Z,4.05
2023-05-09T21:49:21.602Z,5.18
2023-05-09T21:51:48.578Z,3.95
2023-05-09T21:54:15.421Z,2.28
2023-05-09T21:56:42.735Z,5.70
2023-05-09T21:59:09.665Z,6.50
2023-05-09T22:01:37.080Z,9.68
2023-05-09T22:04:04.846Z,3.45
2023-05-09T22:06:32.599Z,8.40
2023-05-09T22:08:59.464Z,6.90
2023-05-09T22:11:26.507Z,7.32
2023-05-09T22:13:53.552Z,8.60
2023-05-09T22:16:22.390Z,5.38
2023-05-09T22:18:49.428Z,10.98
2023-05-09T22:21:16.385Z,6.15
2023-05-09T22:23:44.247Z,3.97
2023-05-09T22:26:11.255Z,8.02
2023-05-09T22:28:38.125Z,4.32
2023-05-09T22:31:08.294Z,4.68
2023-05-09T22:33:35.279Z,7.70
2023-05-09T22:36:02.332Z,6.95
2023-05-09T22:38:29.289Z,5.65
2023-05-09T22:40:56.206Z,10.13
2023-05-09T22:43:24.180Z,7.10
2023-05-09T22:45:52.868Z,6.07
2023-05-09T22:48:19.863Z,8.82
2023-05-09T22:50:47.014Z,6.50
2023-05-09T22:53:14.001Z,5.60
2023-05-09T22:55:40.959Z,11.93
2023-05-09T22:58:08.525Z,7.55
2023-05-09T23:00:35.751Z,5.50
2023-05-09T23:03:04.596Z,6.55
2023-05-09T23:05:31.898Z,3.88
2023-05-09T23:07:58.857Z,4.60
2023-05-09T23:10:27.259Z,6.18
2023-05-09T23:12:54.224Z,6.20
2023-05-09T23:15:21.248Z,8.48
2023-05-09T23:17:48.430Z,8.93
2023-05-09T23:20:16.051Z,5.93
2023-05-09T23:22:43.205Z,7.88
2023-05-09T23:25:10.500Z,11.80
2023-05-09T23:27:40.564Z,8.18
2023-05-09T23:30:11.563Z,13.25
2023-05-09T23:32:38.620Z,8.95
2023-05-09T23:35:06.028Z,5.20
2023-05-09T23:37:32.956Z,7.82
2023-05-09T23:39:59.871Z,7.85
2023-05-09T23:42:27.254Z,8.15
2023-05-09T23:44:54.200Z,5.05
2023-05-09T23:47:21.262Z,7.20
2023-05-09T23:49:48.290Z,7.15
2023-05-09T23:52:15.591Z,6.28
2023-05-09T23:54:42.623Z,8.13
2023-05-09T23:57:09.871Z,8.25
2023-05-09T23:59:36.860Z,5.60
